sensor_id;sensor_type;location;lat;lon;timestamp;pressure;altitude;pressure_sealevel;temperature;humidity
51496;BME280;37572;52.094;4.870;2022-07-29T00:01:03;101793.66;;;16.08;75.52
51496;BME280;37572;52.094;4.870;2022-07-29T00:03:28;101792.25;;;16.05;75.52
51496;BME280;37572;52.094;4.870;2022-07-29T00:05:53;101796.44;;;16.01;76.13
51496;BME280;37572;52.094;4.870;2022-07-29T00:08:19;101781.41;;;15.98;76.53
51496;BME280;37572;52.094;4.870;2022-07-29T00:10:45;101788.75;;;15.98;76.60
51496;BME280;37572;52.094;4.870;2022-07-29T00:13:10;101783.31;;;15.98;76.41
51496;BME280;37572;52.094;4.870;2022-07-29T00:15:35;101782.94;;;15.94;76.23
51496;BME280;37572;52.094;4.870;2022-07-29T00:18:01;101776.03;;;15.92;77.10
51496;BME280;37572;52.094;4.870;2022-07-29T00:20:26;101772.50;;;15.91;77.01
51496;BME280;37572;52.094;4.870;2022-07-29T00:22:52;101770.63;;;15.92;76.51
51496;BME280;37572;52.094;4.870;2022-07-29T00:25:18;101774.16;;;15.92;76.40
51496;BME280;37572;52.094;4.870;2022-07-29T00:27:44;101768.72;;;15.92;76.65
51496;BME280;37572;52.094;4.870;2022-07-29T00:30:11;101772.50;;;15.91;76.94
51496;BME280;37572;52.094;4.870;2022-07-29T00:32:36;101770.63;;;15.92;76.35
51496;BME280;37572;52.094;4.870;2022-07-29T00:35:02;101761.00;;;15.89;76.23
51496;BME280;37572;52.094;4.870;2022-07-29T00:37:46;101762.31;;;15.86;76.73
51496;BME280;37572;52.094;4.870;2022-07-29T00:40:11;101754.16;;;15.86;77.00
51496;BME280;37572;52.094;4.870;2022-07-29T00:42:48;101746.91;;;15.80;76.58
51496;BME280;37572;52.094;4.870;2022-07-29T00:45:14;101754.59;;;15.77;76.99
51496;BME280;37572;52.094;4.870;2022-07-29T00:47:40;101758.81;;;15.73;77.43
51496;BME280;37572;52.094;4.870;2022-07-29T00:50:08;101753.81;;;15.69;78.25
51496;BME280;37572;52.094;4.870;2022-07-29T00:52:35;101748.38;;;15.69;78.38
51496;BME280;37572;52.094;4.870;2022-07-29T00:55:04;101742.75;;;15.71;77.99
51496;BME280;37572;52.094;4.870;2022-07-29T00:57:30;101748.16;;;15.71;78.59
51496;BME280;37572;52.094;4.870;2022-07-29T00:59:55;101750.28;;;15.69;78.44
51496;BME280;37572;52.094;4.870;2022-07-29T01:02:23;101744.25;;;15.67;78.98
51496;BME280;37572;52.094;4.870;2022-07-29T01:04:48;101747.41;;;15.64;79.12
51496;BME280;37572;52.094;4.870;2022-07-29T01:07:14;101739.47;;;15.62;79.09
51496;BME280;37572;52.094;4.870;2022-07-29T01:09:40;101740.53;;;15.61;79.36
51496;BME280;37572;52.094;4.870;2022-07-29T01:12:07;101743.25;;;15.61;79.27
51496;BME280;37572;52.094;4.870;2022-07-29T01:14:33;101745.34;;;15.59;79.32
51496;BME280;37572;52.094;4.870;2022-07-29T01:31:18;101741.25;;;15.50;80.00
51496;BME280;37572;52.094;4.870;2022-07-29T01:33:50;101740.63;;;15.48;79.74
51496;BME280;37572;52.094;4.870;2022-07-29T01:36:29;101740.03;;;15.46;79.80
51496;BME280;37572;52.094;4.870;2022-07-29T01:39:19;101741.06;;;15.45;79.98
51496;BME280;37572;52.094;4.870;2022-07-29T01:41:50;101742.13;;;15.44;80.11
51496;BME280;37572;52.094;4.870;2022-07-29T01:44:22;101738.19;;;15.40;79.69
51496;BME280;37572;52.094;4.870;2022-07-29T01:46:58;101729.22;;;15.39;79.57
51496;BME280;37572;52.094;4.870;2022-07-29T01:49:27;101736.50;;;15.39;79.46
51496;BME280;37572;52.094;4.870;2022-07-29T01:51:57;101732.97;;;15.38;79.66
51496;BME280;37572;52.094;4.870;2022-07-29T01:54:45;101733.34;;;15.42;79.23
51496;BME280;37572;52.094;4.870;2022-07-29T01:57:14;101729.59;;;15.43;79.18
51496;BME280;37572;52.094;4.870;2022-07-29T01:59:43;101723.56;;;15.41;79.27
51496;BME280;37572;52.094;4.870;2022-07-29T02:02:11;101723.56;;;15.41;78.91
51496;BME280;37572;52.094;4.870;2022-07-29T02:04:39;101722.94;;;15.39;79.40
51496;BME280;37572;52.094;4.870;2022-07-29T02:07:07;101728.16;;;15.40;79.61
51496;BME280;37572;52.094;4.870;2022-07-29T02:09:35;101728.16;;;15.40;79.47
51496;BME280;37572;52.094;4.870;2022-07-29T02:12:03;101718.38;;;15.39;79.36
51496;BME280;37572;52.094;4.870;2022-07-29T02:14:33;101722.13;;;15.38;79.56
51496;BME280;37572;52.094;4.870;2022-07-29T02:17:01;101721.50;;;15.36;80.06
51496;BME280;37572;52.094;4.870;2022-07-29T02:19:29;101723.59;;;15.34;79.85
51496;BME280;37572;52.094;4.870;2022-07-29T02:21:56;101720.06;;;15.33;80.33
51496;BME280;37572;52.094;4.870;2022-07-29T02:24:24;101720.28;;;15.32;80.28
51496;BME280;37572;52.094;4.870;2022-07-29T02:26:51;101721.53;;;15.29;80.46
51496;BME280;37572;52.094;4.870;2022-07-29T02:29:20;101719.03;;;15.28;80.23
51496;BME280;37572;52.094;4.870;2022-07-29T02:31:48;101715.72;;;15.26;80.55
51496;BME280;37572;52.094;4.870;2022-07-29T02:34:15;101724.91;;;15.25;80.69
51496;BME280;37572;52.094;4.870;2022-07-29T02:36:43;101721.59;;;15.23;81.60
51496;BME280;37572;52.094;4.870;2022-07-29T02:39:10;101712.22;;;15.19;80.81
51496;BME280;37572;52.094;4.870;2022-07-29T02:41:48;101708.09;;;15.16;82.03
51496;BME280;37572;52.094;4.870;2022-07-29T02:44:16;101717.25;;;15.15;82.22
51496;BME280;37572;52.094;4.870;2022-07-29T02:46:49;101711.00;;;15.14;81.94
51496;BME280;37572;52.094;4.870;2022-07-29T02:49:38;101713.72;;;15.14;82.07
51496;BME280;37572;52.094;4.870;2022-07-29T02:52:08;101711.84;;;15.15;81.70
51496;BME280;37572;52.094;4.870;2022-07-29T02:54:41;101707.22;;;15.15;81.47
51496;BME280;37572;52.094;4.870;2022-07-29T02:57:28;101711.13;;;15.26;81.00
51496;BME280;37572;52.094;4.870;2022-07-29T02:59:57;101704.44;;;15.29;80.83
51496;BME280;37572;52.094;4.870;2022-07-29T03:02:25;101699.84;;;15.29;80.93
51496;BME280;37572;52.094;4.870;2022-07-29T03:04:51;101713.63;;;15.28;80.99
51496;BME280;37572;52.094;4.870;2022-07-29T03:07:18;101707.38;;;15.27;80.81
51496;BME280;37572;52.094;4.870;2022-07-29T03:09:45;101705.69;;;15.26;80.90
51496;BME280;37572;52.094;4.870;2022-07-29T03:12:11;101700.28;;;15.26;80.62
51496;BME280;37572;52.094;4.870;2022-07-29T03:14:38;101693.44;;;15.24;80.21
51496;BME280;37572;52.094;4.870;2022-07-29T03:17:03;101696.75;;;15.26;80.30
51496;BME280;37572;52.094;4.870;2022-07-29T03:19:29;101698.00;;;15.23;80.36
51496;BME280;37572;52.094;4.870;2022-07-29T03:21:57;101704.28;;;15.24;80.37
51496;BME280;37572;52.094;4.870;2022-07-29T03:24:31;101699.06;;;15.22;80.14
51496;BME280;37572;52.094;4.870;2022-07-29T03:26:58;101693.84;;;15.21;80.20
51496;BME280;37572;52.094;4.870;2022-07-29T03:29:24;101696.56;;;15.21;79.99
51496;BME280;37572;52.094;4.870;2022-07-29T03:31:50;101697.41;;;15.21;80.51
51496;BME280;37572;52.094;4.870;2022-07-29T03:34:15;101698.22;;;15.22;80.44
51496;BME280;37572;52.094;4.870;2022-07-29T03:36:40;101697.41;;;15.21;80.47
51496;BME280;37572;52.094;4.870;2022-07-29T03:39:07;101692.19;;;15.20;80.21
51496;BME280;37572;52.094;4.870;2022-07-29T03:41:35;101692.19;;;15.20;80.33
51496;BME280;37572;52.094;4.870;2022-07-29T03:44:02;101692.63;;;15.16;80.27
51496;BME280;37572;52.094;4.870;2022-07-29T03:46:30;101689.91;;;15.16;80.69
51496;BME280;37572;52.094;4.870;2022-07-29T03:49:00;101694.75;;;15.14;80.56
51496;BME280;37572;52.094;4.870;2022-07-29T03:51:26;101692.84;;;15.15;80.56
51496;BME280;37572;52.094;4.870;2022-07-29T03:53:52;101686.78;;;15.13;80.49
51496;BME280;37572;52.094;4.870;2022-07-29T03:56:21;101688.69;;;15.12;80.59
51496;BME280;37572;52.094;4.870;2022-07-29T03:58:48;101690.78;;;15.10;80.69
51496;BME280;37572;52.094;4.870;2022-07-29T04:01:16;101688.06;;;15.10;81.00
51496;BME280;37572;52.094;4.870;2022-07-29T04:03:43;101688.06;;;15.10;80.57
51496;BME280;37572;52.094;4.870;2022-07-29T04:06:10;101692.66;;;15.10;81.16
51496;BME280;37572;52.094;4.870;2022-07-29T04:08:36;101685.16;;;15.12;80.95
51496;BME280;37572;52.094;4.870;2022-07-29T04:11:01;101688.06;;;15.10;80.56
51496;BME280;37572;52.094;4.870;2022-07-29T04:13:27;101689.94;;;15.10;80.68
51496;BME280;37572;52.094;4.870;2022-07-29T04:15:52;101688.06;;;15.10;80.36
51496;BME280;37572;52.094;4.870;2022-07-29T04:18:18;101698.94;;;15.10;81.23
51496;BME280;37572;52.094;4.870;2022-07-29T04:20:43;101692.03;;;15.08;80.95
51496;BME280;37572;52.094;4.870;2022-07-29T04:23:09;101692.25;;;15.06;81.43
51496;BME280;37572;52.094;4.870;2022-07-29T04:25:37;101687.06;;;15.05;81.48
51496;BME280;37572;52.094;4.870;2022-07-29T04:28:05;101687.88;;;15.05;81.35
51496;BME280;37572;52.094;4.870;2022-07-29T04:30:32;101688.94;;;15.04;81.57
51496;BME280;37572;52.094;4.870;2022-07-29T04:32:58;101686.69;;;15.01;82.10
51496;BME280;37572;52.094;4.870;2022-07-29T04:35:26;101696.88;;;14.99;81.88
51496;BME280;37572;52.094;4.870;2022-07-29T04:37:51;101690.66;;;14.98;81.60
51496;BME280;37572;52.094;4.870;2022-07-29T04:40:16;101700.25;;;15.01;81.56
51496;BME280;37572;52.094;4.870;2022-07-29T04:42:42;101701.88;;;15.02;81.27
51496;BME280;37572;52.094;4.870;2022-07-29T04:45:07;101700.41;;;15.06;81.57
51496;BME280;37572;52.094;4.870;2022-07-29T04:47:33;101697.25;;;15.09;81.18
51496;BME280;37572;52.094;4.870;2022-07-29T04:49:58;101702.03;;;15.14;81.18
51496;BME280;37572;52.094;4.870;2022-07-29T04:52:23;101699.94;;;15.16;80.68
51496;BME280;37572;52.094;4.870;2022-07-29T04:54:49;101699.72;;;15.18;80.51
51496;BME280;37572;52.094;4.870;2022-07-29T04:57:14;101692.41;;;15.18;80.64
51496;BME280;37572;52.094;4.870;2022-07-29T04:59:39;101692.19;;;15.20;80.72
51496;BME280;37572;52.094;4.870;2022-07-29T05:02:06;101694.47;;;15.23;80.64
51496;BME280;37572;52.094;4.870;2022-07-29T05:04:31;101699.66;;;15.24;80.37
51496;BME280;37572;52.094;4.870;2022-07-29T05:06:56;101695.06;;;15.25;80.24
51496;BME280;37572;52.094;4.870;2022-07-29T05:09:22;101690.72;;;15.24;80.73
51496;BME280;37572;52.094;4.870;2022-07-29T05:11:47;101692.34;;;15.25;80.82
51496;BME280;37572;52.094;4.870;2022-07-29T05:14:12;101691.31;;;15.26;80.63
51496;BME280;37572;52.094;4.870;2022-07-29T05:16:38;101696.75;;;15.26;80.63
51496;BME280;37572;52.094;4.870;2022-07-29T05:19:05;101693.81;;;15.27;80.51
51496;BME280;37572;52.094;4.870;2022-07-29T05:21:30;101695.63;;;15.33;79.92
51496;BME280;37572;52.094;4.870;2022-07-29T05:23:56;101692.94;;;15.33;80.27
51496;BME280;37572;52.094;4.870;2022-07-29T05:26:21;101692.25;;;15.38;80.42
51496;BME280;37572;52.094;4.870;2022-07-29T05:28:46;101696.00;;;15.44;80.12
51496;BME280;37572;52.094;4.870;2022-07-29T05:31:12;101699.53;;;15.44;80.12
51496;BME280;37572;52.094;4.870;2022-07-29T05:33:39;101702.19;;;15.51;80.13
51496;BME280;37572;52.094;4.870;2022-07-29T05:36:05;101703.63;;;15.54;79.24
51496;BME280;37572;52.094;4.870;2022-07-29T05:38:31;101699.22;;;15.59;79.34
51496;BME280;37572;52.094;4.870;2022-07-29T05:40:58;101699.22;;;15.59;79.22
51496;BME280;37572;52.094;4.870;2022-07-29T05:43:24;101708.78;;;15.62;79.52
51496;BME280;37572;52.094;4.870;2022-07-29T05:45:49;101706.06;;;15.62;79.44
51496;BME280;37572;52.094;4.870;2022-07-29T05:48:14;101706.25;;;15.67;79.43
51496;BME280;37572;52.094;4.870;2022-07-29T05:50:39;101708.88;;;15.74;79.26
51496;BME280;37572;52.094;4.870;2022-07-29T05:53:05;101706.97;;;15.81;79.42
51496;BME280;37572;52.094;4.870;2022-07-29T05:55:30;101703.31;;;15.94;79.36
51496;BME280;37572;52.094;4.870;2022-07-29T05:57:56;101713.81;;;16.09;78.88
51496;BME280;37572;52.094;4.870;2022-07-29T06:00:21;101708.25;;;16.22;78.31
51496;BME280;37572;52.094;4.870;2022-07-29T06:02:46;101717.31;;;16.34;78.06
51496;BME280;37572;52.094;4.870;2022-07-29T06:05:12;101713.00;;;16.45;77.58
51496;BME280;37572;52.094;4.870;2022-07-29T06:07:37;101714.97;;;16.56;77.21
51496;BME280;37572;52.094;4.870;2022-07-29T06:10:03;101719.41;;;16.69;77.17
51496;BME280;37572;52.094;4.870;2022-07-29T06:12:28;101721.94;;;16.83;76.21
51496;BME280;37572;52.094;4.870;2022-07-29T06:14:53;101714.09;;;16.93;75.85
51496;BME280;37572;52.094;4.870;2022-07-29T06:17:18;101715.50;;;17.14;75.66
51496;BME280;37572;52.094;4.870;2022-07-29T06:19:44;101715.94;;;17.41;74.26
51496;BME280;37572;52.094;4.870;2022-07-29T06:22:09;101721.06;;;17.85;73.54
51496;BME280;37572;52.094;4.870;2022-07-29T06:24:35;101722.50;;;18.35;71.43
51496;BME280;37572;52.094;4.870;2022-07-29T06:27:02;101735.66;;;18.79;69.39
51496;BME280;37572;52.094;4.870;2022-07-29T06:29:27;101740.38;;;18.95;67.57
51496;BME280;37572;52.094;4.870;2022-07-29T06:31:52;101737.25;;;19.03;67.96
51496;BME280;37572;52.094;4.870;2022-07-29T06:34:18;101741.47;;;19.57;68.08
51496;BME280;37572;52.094;4.870;2022-07-29T06:36:43;101741.13;;;20.21;66.43
51496;BME280;37572;52.094;4.870;2022-07-29T06:39:09;101747.69;;;20.81;63.19
51496;BME280;37572;52.094;4.870;2022-07-29T06:41:34;101746.72;;;20.93;60.60
51496;BME280;37572;52.094;4.870;2022-07-29T06:44:00;101743.56;;;20.79;60.99
51496;BME280;37572;52.094;4.870;2022-07-29T06:46:26;101749.19;;;20.50;60.92
51496;BME280;37572;52.094;4.870;2022-07-29T06:48:52;101752.47;;;20.30;61.30
51496;BME280;37572;52.094;4.870;2022-07-29T06:51:18;101744.31;;;20.13;61.92
51496;BME280;37572;52.094;4.870;2022-07-29T06:53:43;101745.97;;;20.14;62.39
51496;BME280;37572;52.094;4.870;2022-07-29T06:56:09;101743.81;;;20.16;62.86
51496;BME280;37572;52.094;4.870;2022-07-29T06:58:35;101744.91;;;20.37;63.33
51496;BME280;37572;52.094;4.870;2022-07-29T07:01:03;101749.59;;;20.81;61.24
51496;BME280;37572;52.094;4.870;2022-07-29T07:03:30;101747.28;;;20.95;59.08
51496;BME280;37572;52.094;4.870;2022-07-29T07:05:56;101751.63;;;20.69;58.33
51496;BME280;37572;52.094;4.870;2022-07-29T07:08:22;101747.91;;;20.36;59.69
51496;BME280;37572;52.094;4.870;2022-07-29T07:10:49;101751.53;;;21.08;59.87
51496;BME280;37572;52.094;4.870;2022-07-29T07:13:15;101763.34;;;22.43;56.07
51496;BME280;37572;52.094;4.870;2022-07-29T07:15:42;101766.69;;;23.29;51.50
51496;BME280;37572;52.094;4.870;2022-07-29T07:18:08;101772.91;;;23.04;51.74
51496;BME280;37572;52.094;4.870;2022-07-29T07:20:34;101773.03;;;22.61;51.85
51496;BME280;37572;52.094;4.870;2022-07-29T07:22:59;101758.63;;;21.96;54.12
51496;BME280;37572;52.094;4.870;2022-07-29T07:25:25;101767.75;;;21.69;57.01
51496;BME280;37572;52.094;4.870;2022-07-29T07:27:51;101757.81;;;21.30;56.20
51496;BME280;37572;52.094;4.870;2022-07-29T07:30:16;101760.78;;;21.01;56.90
51496;BME280;37572;52.094;4.870;2022-07-29T07:32:41;101761.69;;;20.85;59.34
51496;BME280;37572;52.094;4.870;2022-07-29T07:35:08;101762.31;;;20.92;59.43
51496;BME280;37572;52.094;4.870;2022-07-29T07:37:35;101759.06;;;20.95;59.73
51496;BME280;37572;52.094;4.870;2022-07-29T07:40:03;101760.53;;;21.03;59.01
51496;BME280;37572;52.094;4.870;2022-07-29T07:42:29;101761.22;;;21.15;58.05
51496;BME280;37572;52.094;4.870;2022-07-29T07:44:54;101764.19;;;21.14;58.37
51496;BME280;37572;52.094;4.870;2022-07-29T07:47:19;101754.31;;;21.13;59.26
51496;BME280;37572;52.094;4.870;2022-07-29T07:49:46;101757.03;;;21.08;58.12
51496;BME280;37572;52.094;4.870;2022-07-29T07:52:11;101761.75;;;21.17;59.04
51496;BME280;37572;52.094;4.870;2022-07-29T07:54:37;101772.31;;;21.31;59.22
51496;BME280;37572;52.094;4.870;2022-07-29T07:57:02;101770.28;;;21.48;58.58
51496;BME280;37572;52.094;4.870;2022-07-29T07:59:27;101772.66;;;21.67;57.49
51496;BME280;37572;52.094;4.870;2022-07-29T08:01:53;101765.03;;;21.69;56.62
51496;BME280;37572;52.094;4.870;2022-07-29T08:04:18;101758.63;;;21.58;57.91
51496;BME280;37572;52.094;4.870;2022-07-29T08:06:43;101757.88;;;21.68;57.73
51496;BME280;37572;52.094;4.870;2022-07-29T08:09:09;101763.91;;;21.70;57.32
51496;BME280;37572;52.094;4.870;2022-07-29T08:13:59;101772.75;;;22.15;58.01
51496;BME280;37572;52.094;4.870;2022-07-29T08:16:26;101774.59;;;22.41;58.95
51496;BME280;37572;52.094;4.870;2022-07-29T08:18:51;101777.72;;;22.60;58.50
51496;BME280;37572;52.094;4.870;2022-07-29T08:21:22;101768.06;;;22.53;55.72
51496;BME280;37572;52.094;4.870;2022-07-29T08:23:47;101775.78;;;22.56;55.84
51496;BME280;37572;52.094;4.870;2022-07-29T08:26:18;101776.06;;;22.65;56.46
51496;BME280;37572;52.094;4.870;2022-07-29T08:28:45;101780.19;;;22.62;54.48
51496;BME280;37572;52.094;4.870;2022-07-29T08:31:12;101780.22;;;22.67;54.94
51496;BME280;37572;52.094;4.870;2022-07-29T08:33:38;101774.22;;;22.80;55.63
51496;BME280;37572;52.094;4.870;2022-07-29T08:36:04;101779.19;;;22.84;54.14
51496;BME280;37572;52.094;4.870;2022-07-29T08:38:30;101771.75;;;22.79;54.84
51496;BME280;37572;52.094;4.870;2022-07-29T08:40:55;101776.38;;;22.68;54.64
51496;BME280;37572;52.094;4.870;2022-07-29T08:43:21;101776.66;;;22.67;55.67
51496;BME280;37572;52.094;4.870;2022-07-29T08:45:49;101782.66;;;22.64;54.82
51496;BME280;37572;52.094;4.870;2022-07-29T08:48:16;101778.13;;;22.37;53.01
51496;BME280;37572;52.094;4.870;2022-07-29T08:50:43;101769.50;;;22.23;54.56
51496;BME280;37572;52.094;4.870;2022-07-29T08:53:13;101765.75;;;21.91;55.17
51496;BME280;37572;52.094;4.870;2022-07-29T08:55:41;101763.81;;;21.87;56.05
51496;BME280;37572;52.094;4.870;2022-07-29T08:58:07;101769.66;;;22.01;55.75
51496;BME280;37572;52.094;4.870;2022-07-29T09:00:33;101772.13;;;22.02;57.00
51496;BME280;37572;52.094;4.870;2022-07-29T09:03:02;101777.72;;;21.80;56.23
51496;BME280;37572;52.094;4.870;2022-07-29T09:05:28;101772.56;;;21.84;56.74
51496;BME280;37572;52.094;4.870;2022-07-29T09:07:54;101775.03;;;21.85;57.75
51496;BME280;37572;52.094;4.870;2022-07-29T09:10:20;101772.66;;;21.99;58.93
51496;BME280;37572;52.094;4.870;2022-07-29T09:12:46;101770.50;;;22.06;58.00
51496;BME280;37572;52.094;4.870;2022-07-29T09:15:11;101765.34;;;22.15;56.90
51496;BME280;37572;52.094;4.870;2022-07-29T09:17:48;101759.06;;;22.20;57.79
51496;BME280;37572;52.094;4.870;2022-07-29T09:20:19;101762.69;;;22.25;58.43
51496;BME280;37572;52.094;4.870;2022-07-29T09:22:46;101757.00;;;22.37;58.67
51496;BME280;37572;52.094;4.870;2022-07-29T09:25:35;101761.47;;;22.49;59.53
51496;BME280;37572;52.094;4.870;2022-07-29T09:28:15;101757.38;;;22.61;58.48
51496;BME280;37572;52.094;4.870;2022-07-29T09:30:55;101758.53;;;22.71;56.91
51496;BME280;37572;52.094;4.870;2022-07-29T09:33:22;101767.63;;;22.76;56.44
51496;BME280;37572;52.094;4.870;2022-07-29T09:36:08;101765.13;;;22.75;56.68
51496;BME280;37572;52.094;4.870;2022-07-29T09:38:34;101758.84;;;22.79;56.46
51496;BME280;37572;52.094;4.870;2022-07-29T09:41:03;101757.50;;;22.87;55.49
51496;BME280;37572;52.094;4.870;2022-07-29T09:43:28;101756.41;;;22.88;54.39
51496;BME280;37572;52.094;4.870;2022-07-29T09:45:54;101764.09;;;22.91;54.75
51496;BME280;37572;52.094;4.870;2022-07-29T09:48:22;101762.44;;;22.95;54.57
51496;BME280;37572;52.094;4.870;2022-07-29T09:50:48;101766.31;;;23.00;55.05
51496;BME280;37572;52.094;4.870;2022-07-29T09:53:44;101762.53;;;23.11;55.42
51496;BME280;37572;52.094;4.870;2022-07-29T09:56:09;101767.50;;;23.24;55.89
51496;BME280;37572;52.094;4.870;2022-07-29T09:58:35;101763.94;;;23.34;56.39
51496;BME280;37572;52.094;4.870;2022-07-29T10:01:01;101767.22;;;23.21;54.59
51496;BME280;37572;52.094;4.870;2022-07-29T10:03:26;101775.19;;;23.22;54.41
51496;BME280;37572;52.094;4.870;2022-07-29T10:06:09;101773.84;;;23.25;55.50
51496;BME280;37572;52.094;4.870;2022-07-29T10:08:35;101787.03;;;23.33;55.25
51496;BME280;37572;52.094;4.870;2022-07-29T10:11:15;101777.97;;;23.38;54.66
51496;BME280;37572;52.094;4.870;2022-07-29T10:13:41;101771.63;;;23.47;54.96
51496;BME280;37572;52.094;4.870;2022-07-29T10:16:06;101776.31;;;23.52;55.18
51496;BME280;37572;52.094;4.870;2022-07-29T10:18:32;101771.38;;;23.54;55.48
51496;BME280;37572;52.094;4.870;2022-07-29T10:20:58;101771.38;;;23.44;54.99
51496;BME280;37572;52.094;4.870;2022-07-29T10:23:26;101771.91;;;23.41;54.99
51496;BME280;37572;52.094;4.870;2022-07-29T10:25:52;101773.81;;;23.35;56.04
51496;BME280;37572;52.094;4.870;2022-07-29T10:28:18;101767.53;;;23.45;55.05
51496;BME280;37572;52.094;4.870;2022-07-29T10:30:44;101759.84;;;23.57;56.19
51496;BME280;37572;52.094;4.870;2022-07-29T10:33:39;101770.59;;;23.84;56.03
51496;BME280;37572;52.094;4.870;2022-07-29T10:36:21;101776.03;;;24.10;54.17
51496;BME280;37572;52.094;4.870;2022-07-29T10:42:02;101760.06;;;24.17;52.55
51496;BME280;37572;52.094;4.870;2022-07-29T10:44:32;101769.44;;;24.21;53.46
51496;BME280;37572;52.094;4.870;2022-07-29T10:46:58;101759.50;;;24.26;53.73
51496;BME280;37572;52.094;4.870;2022-07-29T10:49:27;101757.28;;;24.38;53.43
51496;BME280;37572;52.094;4.870;2022-07-29T10:51:55;101752.81;;;24.57;53.96
51496;BME280;37572;52.094;4.870;2022-07-29T11:05:11;101757.44;;;24.72;52.56
51496;BME280;37572;52.094;4.870;2022-07-29T11:07:39;101749.41;;;24.81;51.99
51496;BME280;37572;52.094;4.870;2022-07-29T11:15:10;101746.50;;;24.47;50.19
51496;BME280;37572;52.094;4.870;2022-07-29T11:20:42;101744.00;;;24.66;51.06
51496;BME280;37572;52.094;4.870;2022-07-29T11:23:21;101741.41;;;24.85;52.10
51496;BME280;37572;52.094;4.870;2022-07-29T11:29:06;101742.09;;;25.06;50.95
51496;BME280;37572;52.094;4.870;2022-07-29T11:31:39;101740.03;;;24.87;48.87
51496;BME280;37572;52.094;4.870;2022-07-29T11:37:20;101742.72;;;24.92;50.83
51496;BME280;37572;52.094;4.870;2022-07-29T11:47:21;101745.63;;;25.56;47.66
51496;BME280;37572;52.094;4.870;2022-07-29T11:49:47;101751.31;;;25.65;47.94
51496;BME280;37572;52.094;4.870;2022-07-29T11:52:12;101746.56;;;25.76;49.65
51496;BME280;37572;52.094;4.870;2022-07-29T11:54:40;101745.13;;;25.84;50.45
51496;BME280;37572;52.094;4.870;2022-07-29T11:57:07;101748.84;;;25.98;48.42
51496;BME280;37572;52.094;4.870;2022-07-29T11:59:38;101751.75;;;26.36;48.40
51496;BME280;37572;52.094;4.870;2022-07-29T12:02:04;101757.19;;;26.65;45.65
51496;BME280;37572;52.094;4.870;2022-07-29T12:04:29;101756.50;;;26.79;45.96
51496;BME280;37572;52.094;4.870;2022-07-29T12:06:56;101759.56;;;26.77;45.68
51496;BME280;37572;52.094;4.870;2022-07-29T12:09:22;101755.31;;;26.85;45.39
51496;BME280;37572;52.094;4.870;2022-07-29T12:11:57;101764.88;;;26.93;44.95
51496;BME280;37572;52.094;4.870;2022-07-29T12:14:29;101763.16;;;27.16;45.44
51496;BME280;37572;52.094;4.870;2022-07-29T12:16:55;101763.31;;;27.25;44.84
51496;BME280;37572;52.094;4.870;2022-07-29T12:19:21;101763.31;;;27.44;43.80
51496;BME280;37572;52.094;4.870;2022-07-29T12:21:47;101759.50;;;27.39;41.18
51496;BME280;37572;52.094;4.870;2022-07-29T12:24:13;101765.88;;;27.40;43.66
51496;BME280;37572;52.094;4.870;2022-07-29T12:26:50;101768.09;;;27.57;43.99
51496;BME280;37572;52.094;4.870;2022-07-29T12:29:16;101761.03;;;27.65;43.27
51496;BME280;37572;52.094;4.870;2022-07-29T12:31:42;101760.56;;;27.76;42.58
51496;BME280;37572;52.094;4.870;2022-07-29T12:34:09;101763.97;;;27.87;42.67
51496;BME280;37572;52.094;4.870;2022-07-29T12:36:35;101762.31;;;27.86;43.12
51496;BME280;37572;52.094;4.870;2022-07-29T12:39:01;101764.78;;;27.88;41.24
51496;BME280;37572;52.094;4.870;2022-07-29T12:41:28;101766.31;;;27.94;40.91
51496;BME280;37572;52.094;4.870;2022-07-29T12:43:54;101756.66;;;28.10;42.02
51496;BME280;37572;52.094;4.870;2022-07-29T12:46:20;101761.16;;;28.34;42.19
51496;BME280;37572;52.094;4.870;2022-07-29T12:48:51;101755.13;;;28.46;38.65
51496;BME280;37572;52.094;4.870;2022-07-29T12:51:38;101747.09;;;28.44;39.76
51496;BME280;37572;52.094;4.870;2022-07-29T12:54:09;101760.66;;;28.60;41.01
51496;BME280;37572;52.094;4.870;2022-07-29T12:56:39;101761.66;;;28.92;39.48
51496;BME280;37572;52.094;4.870;2022-07-29T12:59:21;101762.47;;;29.51;38.05
51496;BME280;37572;52.094;4.870;2022-07-29T13:01:49;101755.13;;;30.01;39.08
51496;BME280;37572;52.094;4.870;2022-07-29T13:04:29;101759.75;;;30.54;36.65
51496;BME280;37572;52.094;4.870;2022-07-29T13:07:05;101763.91;;;31.01;37.01
51496;BME280;37572;52.094;4.870;2022-07-29T13:09:43;101753.94;;;31.17;36.35
51496;BME280;37572;52.094;4.870;2022-07-29T13:12:12;101754.91;;;31.47;36.35
51496;BME280;37572;52.094;4.870;2022-07-29T13:14:43;101760.38;;;31.91;34.14
51496;BME280;37572;52.094;4.870;2022-07-29T13:17:15;101758.22;;;31.97;31.61
51496;BME280;37572;52.094;4.870;2022-07-29T13:22:14;101754.25;;;31.51;33.95
51496;BME280;37572;52.094;4.870;2022-07-29T13:27:11;101754.94;;;31.21;35.36
51496;BME280;37572;52.094;4.870;2022-07-29T13:29:36;101761.06;;;30.57;35.23
51496;BME280;37572;52.094;4.870;2022-07-29T13:32:05;101750.13;;;29.80;35.73
51496;BME280;37572;52.094;4.870;2022-07-29T13:34:30;101748.00;;;29.18;38.83
51496;BME280;37572;52.094;4.870;2022-07-29T13:36:56;101751.44;;;28.64;40.02
51496;BME280;37572;52.094;4.870;2022-07-29T13:39:21;101742.50;;;27.98;42.69
51496;BME280;37572;52.094;4.870;2022-07-29T13:41:47;101745.66;;;27.58;41.72
51496;BME280;37572;52.094;4.870;2022-07-29T13:44:12;101738.78;;;27.18;41.85
51496;BME280;37572;52.094;4.870;2022-07-29T13:46:37;101725.13;;;26.88;41.93
51496;BME280;37572;52.094;4.870;2022-07-29T13:49:02;101736.69;;;26.72;44.73
51496;BME280;37572;52.094;4.870;2022-07-29T13:51:28;101730.47;;;26.61;43.95